sensor_id;sensor_type;location;lat;lon;timestamp;P1;durP1;ratioP1;P2;durP2;ratioP2
44068;SDS011;29738;51.234;5.484;2022-11-20T00:00:09;10.80;;;6.40;;
44068;SDS011;29738;51.234;5.484;2022-11-20T00:02:36;14.70;;;7.10;;
44068;SDS011;29738;51.234;5.484;2022-11-20T00:05:01;19.45;;;8.02;;
44068;SDS011;29738;51.234;5.484;2022-11-20T00:07:27;13.88;;;5.60;;
44068;SDS011;29738;51.234;5.484;2022-11-20T00:09:53;15.38;;;7.13;;
44068;SDS011;29738;51.234;5.484;2022-11-20T00:12:19;20.00;;;8.25;;
44068;SDS011;29738;51.234;5.484;2022-11-20T00:14:45;15.48;;;7.00;;
44068;SDS011;29738;51.234;5.484;2022-11-20T00:17:10;12.02;;;6.38;;
44068;SDS011;29738;51.234;5.484;2022-11-20T00:19:36;17.58;;;8.45;;
44068;SDS011;29738;51.234;5.484;2022-11-20T00:22:02;15.80;;;8.45;;
44068;SDS011;29738;51.234;5.484;2022-11-20T00:24:28;13.40;;;6.38;;
44068;SDS011;29738;51.234;5.484;2022-11-20T00:26:53;13.80;;;6.80;;
44068;SDS011;29738;51.234;5.484;2022-11-20T00:29:19;21.88;;;9.05;;
44068;SDS011;29738;51.234;5.484;2022-11-20T00:31:45;20.15;;;9.35;;
44068;SDS011;29738;51.234;5.484;2022-11-20T00:34:11;19.30;;;9.68;;
44068;SDS011;29738;51.234;5.484;2022-11-20T00:36:36;22.13;;;9.18;;
44068;SDS011;29738;51.234;5.484;2022-11-20T00:39:02;22.58;;;9.35;;
44068;SDS011;29738;51.234;5.484;2022-11-20T00:41:28;15.18;;;7.20;;
44068;SDS011;29738;51.234;5.484;2022-11-20T00:43:55;13.23;;;7.10;;
44068;SDS011;29738;51.234;5.484;2022-11-20T00:46:22;20.80;;;10.05;;
44068;SDS011;29738;51.234;5.484;2022-11-20T00:48:49;19.30;;;9.35;;
44068;SDS011;29738;51.234;5.484;2022-11-20T00:51:16;23.95;;;8.85;;
44068;SDS011;29738;51.234;5.484;2022-11-20T00:53:43;18.23;;;8.90;;
44068;SDS011;29738;51.234;5.484;2022-11-20T00:56:10;18.02;;;7.97;;
44068;SDS011;29738;51.234;5.484;2022-11-20T00:58:38;17.13;;;9.57;;
44068;SDS011;29738;51.234;5.484;2022-11-20T01:01:12;22.35;;;9.23;;
44068;SDS011;29738;51.234;5.484;2022-11-20T01:03:41;18.88;;;9.52;;
44068;SDS011;29738;51.234;5.484;2022-11-20T01:08:45;16.75;;;8.25;;
44068;SDS011;29738;51.234;5.484;2022-11-20T01:11:12;18.83;;;7.45;;
44068;SDS011;29738;51.234;5.484;2022-11-20T01:13:40;19.98;;;8.57;;
44068;SDS011;29738;51.234;5.484;2022-11-20T01:16:11;20.75;;;9.38;;
44068;SDS011;29738;51.234;5.484;2022-11-20T01:18:39;17.65;;;8.30;;
44068;SDS011;29738;51.234;5.484;2022-11-20T01:21:10;16.17;;;7.85;;
44068;SDS011;29738;51.234;5.484;2022-11-20T01:23:38;23.85;;;9.88;;
44068;SDS011;29738;51.234;5.484;2022-11-20T01:26:06;20.75;;;8.27;;
44068;SDS011;29738;51.234;5.484;2022-11-20T01:28:34;17.63;;;8.20;;
44068;SDS011;29738;51.234;5.484;2022-11-20T01:31:00;20.77;;;8.77;;
44068;SDS011;29738;51.234;5.484;2022-11-20T01:33:26;16.08;;;8.15;;
44068;SDS011;29738;51.234;5.484;2022-11-20T01:35:52;20.70;;;8.77;;
44068;SDS011;29738;51.234;5.484;2022-11-20T01:38:27;24.40;;;9.85;;
44068;SDS011;29738;51.234;5.484;2022-11-20T01:40:53;19.45;;;9.15;;
44068;SDS011;29738;51.234;5.484;2022-11-20T01:43:20;21.40;;;9.45;;
44068;SDS011;29738;51.234;5.484;2022-11-20T01:48:15;17.88;;;9.18;;
44068;SDS011;29738;51.234;5.484;2022-11-20T01:50:43;24.30;;;9.43;;
44068;SDS011;29738;51.234;5.484;2022-11-20T01:53:10;18.73;;;8.25;;
44068;SDS011;29738;51.234;5.484;2022-11-20T01:55:41;18.45;;;9.13;;
44068;SDS011;29738;51.234;5.484;2022-11-20T01:58:15;23.08;;;11.15;;
44068;SDS011;29738;51.234;5.484;2022-11-20T02:00:43;19.35;;;8.68;;
44068;SDS011;29738;51.234;5.484;2022-11-20T02:03:11;17.85;;;8.98;;
44068;SDS011;29738;51.234;5.484;2022-11-20T02:05:51;21.08;;;9.88;;
44068;SDS011;29738;51.234;5.484;2022-11-20T02:08:34;20.48;;;8.88;;
44068;SDS011;29738;51.234;5.484;2022-11-20T02:11:01;20.05;;;9.70;;
44068;SDS011;29738;51.234;5.484;2022-11-20T02:13:27;19.67;;;10.18;;
44068;SDS011;29738;51.234;5.484;2022-11-20T02:16:09;20.02;;;8.68;;
44068;SDS011;29738;51.234;5.484;2022-11-20T02:18:42;18.38;;;8.68;;
44068;SDS011;29738;51.234;5.484;2022-11-20T02:21:21;25.77;;;10.32;;
44068;SDS011;29738;51.234;5.484;2022-11-20T02:24:00;25.13;;;8.90;;
44068;SDS011;29738;51.234;5.484;2022-11-20T02:26:27;17.75;;;8.98;;
44068;SDS011;29738;51.234;5.484;2022-11-20T02:28:55;19.77;;;8.88;;
44068;SDS011;29738;51.234;5.484;2022-11-20T02:31:21;20.85;;;9.15;;
44068;SDS011;29738;51.234;5.484;2022-11-20T02:33:47;19.13;;;10.45;;
44068;SDS011;29738;51.234;5.484;2022-11-20T02:36:18;20.45;;;9.57;;
44068;SDS011;29738;51.234;5.484;2022-11-20T02:38:44;22.20;;;11.82;;
44068;SDS011;29738;51.234;5.484;2022-11-20T02:41:10;24.85;;;10.77;;
44068;SDS011;29738;51.234;5.484;2022-11-20T02:43:36;26.25;;;11.95;;
44068;SDS011;29738;51.234;5.484;2022-11-20T02:46:01;21.63;;;10.27;;
44068;SDS011;29738;51.234;5.484;2022-11-20T02:48:27;20.73;;;8.38;;
44068;SDS011;29738;51.234;5.484;2022-11-20T02:50:53;22.90;;;9.57;;
44068;SDS011;29738;51.234;5.484;2022-11-20T02:53:19;22.83;;;10.20;;
44068;SDS011;29738;51.234;5.484;2022-11-20T02:55:44;18.42;;;8.73;;
44068;SDS011;29738;51.234;5.484;2022-11-20T02:58:10;25.98;;;10.13;;
44068;SDS011;29738;51.234;5.484;2022-11-20T03:00:36;24.60;;;10.30;;
44068;SDS011;29738;51.234;5.484;2022-11-20T03:03:01;30.27;;;10.98;;
44068;SDS011;29738;51.234;5.484;2022-11-20T03:05:27;22.52;;;9.88;;
44068;SDS011;29738;51.234;5.484;2022-11-20T03:07:53;23.08;;;9.73;;
44068;SDS011;29738;51.234;5.484;2022-11-20T03:10:19;23.40;;;9.27;;
44068;SDS011;29738;51.234;5.484;2022-11-20T03:12:44;25.73;;;10.50;;
44068;SDS011;29738;51.234;5.484;2022-11-20T03:15:10;26.55;;;11.73;;
44068;SDS011;29738;51.234;5.484;2022-11-20T03:17:36;21.60;;;10.52;;
44068;SDS011;29738;51.234;5.484;2022-11-20T03:20:02;20.98;;;9.48;;
44068;SDS011;29738;51.234;5.484;2022-11-20T03:22:31;23.08;;;9.90;;
44068;SDS011;29738;51.234;5.484;2022-11-20T03:24:56;30.00;;;11.07;;
44068;SDS011;29738;51.234;5.484;2022-11-20T03:27:22;19.50;;;9.05;;
44068;SDS011;29738;51.234;5.484;2022-11-20T03:29:48;25.80;;;9.93;;
44068;SDS011;29738;51.234;5.484;2022-11-20T03:32:13;21.08;;;10.43;;
44068;SDS011;29738;51.234;5.484;2022-11-20T03:34:39;26.98;;;9.98;;
44068;SDS011;29738;51.234;5.484;2022-11-20T03:37:05;24.08;;;9.80;;
44068;SDS011;29738;51.234;5.484;2022-11-20T03:39:31;25.85;;;10.95;;
44068;SDS011;29738;51.234;5.484;2022-11-20T03:41:57;23.70;;;9.23;;
44068;SDS011;29738;51.234;5.484;2022-11-20T03:44:22;25.13;;;11.55;;
44068;SDS011;29738;51.234;5.484;2022-11-20T03:46:48;25.63;;;9.60;;
44068;SDS011;29738;51.234;5.484;2022-11-20T03:49:14;21.85;;;9.98;;
44068;SDS011;29738;51.234;5.484;2022-11-20T03:51:40;30.17;;;9.95;;
44068;SDS011;29738;51.234;5.484;2022-11-20T03:54:06;22.02;;;9.88;;
44068;SDS011;29738;51.234;5.484;2022-11-20T03:56:34;18.50;;;9.30;;
44068;SDS011;29738;51.234;5.484;2022-11-20T03:59:02;24.55;;;10.63;;
44068;SDS011;29738;51.234;5.484;2022-11-20T04:01:29;26.63;;;10.60;;
44068;SDS011;29738;51.234;5.484;2022-11-20T04:04:00;26.00;;;10.13;;
44068;SDS011;29738;51.234;5.484;2022-11-20T04:06:27;21.63;;;9.35;;
44068;SDS011;29738;51.234;5.484;2022-11-20T04:08:55;25.17;;;11.25;;
44068;SDS011;29738;51.234;5.484;2022-11-20T04:11:22;27.77;;;9.73;;
44068;SDS011;29738;51.234;5.484;2022-11-20T04:13:51;24.65;;;11.10;;
44068;SDS011;29738;51.234;5.484;2022-11-20T04:16:19;26.02;;;10.75;;
44068;SDS011;29738;51.234;5.484;2022-11-20T04:18:45;30.75;;;11.38;;
44068;SDS011;29738;51.234;5.484;2022-11-20T04:21:11;26.10;;;11.35;;
44068;SDS011;29738;51.234;5.484;2022-11-20T04:23:38;26.73;;;11.15;;
44068;SDS011;29738;51.234;5.484;2022-11-20T04:26:04;27.70;;;11.95;;
44068;SDS011;29738;51.234;5.484;2022-11-20T04:28:32;28.48;;;10.75;;
44068;SDS011;29738;51.234;5.484;2022-11-20T04:31:01;27.27;;;10.48;;
44068;SDS011;29738;51.234;5.484;2022-11-20T04:33:31;28.60;;;11.73;;
44068;SDS011;29738;51.234;5.484;2022-11-20T04:36:02;34.28;;;12.57;;
44068;SDS011;29738;51.234;5.484;2022-11-20T04:38:32;27.65;;;11.20;;
44068;SDS011;29738;51.234;5.484;2022-11-20T04:41:01;36.60;;;12.20;;
44068;SDS011;29738;51.234;5.484;2022-11-20T04:43:31;31.23;;;12.07;;
44068;SDS011;29738;51.234;5.484;2022-11-20T04:45:58;33.83;;;12.40;;
44068;SDS011;29738;51.234;5.484;2022-11-20T04:48:25;29.95;;;12.45;;
44068;SDS011;29738;51.234;5.484;2022-11-20T04:50:53;34.00;;;12.68;;
44068;SDS011;29738;51.234;5.484;2022-11-20T04:53:19;35.95;;;13.27;;
44068;SDS011;29738;51.234;5.484;2022-11-20T04:55:46;34.20;;;13.60;;
44068;SDS011;29738;51.234;5.484;2022-11-20T04:58:12;36.40;;;14.68;;
44068;SDS011;29738;51.234;5.484;2022-11-20T05:00:38;36.75;;;13.30;;
44068;SDS011;29738;51.234;5.484;2022-11-20T05:03:04;37.00;;;13.15;;
44068;SDS011;29738;51.234;5.484;2022-11-20T05:05:30;32.22;;;13.32;;
44068;SDS011;29738;51.234;5.484;2022-11-20T05:07:57;31.65;;;14.07;;
44068;SDS011;29738;51.234;5.484;2022-11-20T05:10:23;39.95;;;13.73;;
44068;SDS011;29738;51.234;5.484;2022-11-20T05:12:50;36.00;;;14.13;;
44068;SDS011;29738;51.234;5.484;2022-11-20T05:15:16;32.33;;;13.70;;
44068;SDS011;29738;51.234;5.484;2022-11-20T05:17:46;29.05;;;13.15;;
44068;SDS011;29738;51.234;5.484;2022-11-20T05:20:13;37.08;;;14.07;;
44068;SDS011;29738;51.234;5.484;2022-11-20T05:22:38;38.40;;;14.70;;
44068;SDS011;29738;51.234;5.484;2022-11-20T05:25:04;44.20;;;14.82;;
44068;SDS011;29738;51.234;5.484;2022-11-20T05:27:30;30.92;;;12.43;;
44068;SDS011;29738;51.234;5.484;2022-11-20T05:29:56;30.08;;;13.45;;
44068;SDS011;29738;51.234;5.484;2022-11-20T05:32:21;34.05;;;13.20;;
44068;SDS011;29738;51.234;5.484;2022-11-20T05:34:50;34.13;;;14.68;;
44068;SDS011;29738;51.234;5.484;2022-11-20T05:37:16;36.05;;;13.43;;
44068;SDS011;29738;51.234;5.484;2022-11-20T05:39:42;34.55;;;13.65;;
44068;SDS011;29738;51.234;5.484;2022-11-20T05:42:08;38.78;;;13.73;;
44068;SDS011;29738;51.234;5.484;2022-11-20T05:44:52;45.70;;;15.88;;
44068;SDS011;29738;51.234;5.484;2022-11-20T05:47:17;34.75;;;13.70;;
44068;SDS011;29738;51.234;5.484;2022-11-20T05:49:43;32.17;;;14.20;;
44068;SDS011;29738;51.234;5.484;2022-11-20T05:52:09;34.95;;;13.90;;
44068;SDS011;29738;51.234;5.484;2022-11-20T05:54:35;43.92;;;15.18;;
44068;SDS011;29738;51.234;5.484;2022-11-20T05:57:00;37.97;;;14.25;;
44068;SDS011;29738;51.234;5.484;2022-11-20T05:59:26;46.55;;;15.30;;
44068;SDS011;29738;51.234;5.484;2022-11-20T06:01:52;34.00;;;13.50;;
44068;SDS011;29738;51.234;5.484;2022-11-20T06:04:18;47.13;;;16.60;;
44068;SDS011;29738;51.234;5.484;2022-11-20T06:06:43;40.78;;;14.32;;
44068;SDS011;29738;51.234;5.484;2022-11-20T06:09:09;38.25;;;14.68;;
44068;SDS011;29738;51.234;5.484;2022-11-20T06:11:35;39.58;;;14.68;;
44068;SDS011;29738;51.234;5.484;2022-11-20T06:14:01;44.92;;;16.00;;
44068;SDS011;29738;51.234;5.484;2022-11-20T06:16:26;44.67;;;14.73;;
44068;SDS011;29738;51.234;5.484;2022-11-20T06:18:52;37.88;;;15.23;;
44068;SDS011;29738;51.234;5.484;2022-11-20T06:21:19;40.90;;;16.13;;
44068;SDS011;29738;51.234;5.484;2022-11-20T06:23:46;40.83;;;15.50;;
44068;SDS011;29738;51.234;5.484;2022-11-20T06:26:13;42.60;;;16.92;;
44068;SDS011;29738;51.234;5.484;2022-11-20T06:28:41;45.55;;;18.85;;
44068;SDS011;29738;51.234;5.484;2022-11-20T06:31:07;54.00;;;21.75;;
44068;SDS011;29738;51.234;5.484;2022-11-20T06:33:35;62.28;;;24.85;;
44068;SDS011;29738;51.234;5.484;2022-11-20T06:36:01;102.15;;;36.97;;
44068;SDS011;29738;51.234;5.484;2022-11-20T06:38:27;102.80;;;44.42;;
44068;SDS011;29738;51.234;5.484;2022-11-20T06:40:53;80.10;;;33.20;;
44068;SDS011;29738;51.234;5.484;2022-11-20T06:43:19;53.78;;;19.13;;
44068;SDS011;29738;51.234;5.484;2022-11-20T06:45:45;44.90;;;18.40;;
44068;SDS011;29738;51.234;5.484;2022-11-20T06:48:11;58.28;;;19.35;;
44068;SDS011;29738;51.234;5.484;2022-11-20T06:50:37;47.25;;;18.55;;
44068;SDS011;29738;51.234;5.484;2022-11-20T06:53:03;48.85;;;18.13;;
44068;SDS011;29738;51.234;5.484;2022-11-20T06:55:30;62.95;;;21.48;;
44068;SDS011;29738;51.234;5.484;2022-11-20T06:57:56;188.52;;;57.85;;
44068;SDS011;29738;51.234;5.484;2022-11-20T07:00:22;102.57;;;33.80;;
44068;SDS011;29738;51.234;5.484;2022-11-20T07:02:48;60.47;;;20.80;;
44068;SDS011;29738;51.234;5.484;2022-11-20T07:05:15;51.20;;;17.98;;
44068;SDS011;29738;51.234;5.484;2022-11-20T07:07:40;55.58;;;20.15;;
44068;SDS011;29738;51.234;5.484;2022-11-20T07:10:07;47.22;;;19.15;;
44068;SDS011;29738;51.234;5.484;2022-11-20T07:12:33;48.72;;;17.05;;
44068;SDS011;29738;51.234;5.484;2022-11-20T07:14:59;54.13;;;18.38;;
44068;SDS011;29738;51.234;5.484;2022-11-20T07:17:25;50.95;;;17.75;;
44068;SDS011;29738;51.234;5.484;2022-11-20T07:19:50;43.45;;;16.52;;
44068;SDS011;29738;51.234;5.484;2022-11-20T07:22:16;44.63;;;15.90;;
44068;SDS011;29738;51.234;5.484;2022-11-20T07:24:42;49.38;;;18.88;;
44068;SDS011;29738;51.234;5.484;2022-11-20T07:27:08;68.82;;;31.40;;
44068;SDS011;29738;51.234;5.484;2022-11-20T07:29:33;53.17;;;21.02;;
44068;SDS011;29738;51.234;5.484;2022-11-20T07:31:59;69.28;;;30.55;;
44068;SDS011;29738;51.234;5.484;2022-11-20T07:34:25;70.85;;;28.85;;
44068;SDS011;29738;51.234;5.484;2022-11-20T07:36:51;53.17;;;18.58;;
44068;SDS011;29738;51.234;5.484;2022-11-20T07:39:16;88.72;;;34.15;;
44068;SDS011;29738;51.234;5.484;2022-11-20T07:41:42;74.13;;;24.48;;
44068;SDS011;29738;51.234;5.484;2022-11-20T07:44:08;125.25;;;40.05;;
44068;SDS011;29738;51.234;5.484;2022-11-20T07:46:34;134.27;;;39.90;;
44068;SDS011;29738;51.234;5.484;2022-11-20T07:48:59;207.63;;;55.95;;
44068;SDS011;29738;51.234;5.484;2022-11-20T07:51:25;169.93;;;53.13;;
44068;SDS011;29738;51.234;5.484;2022-11-20T07:53:51;191.98;;;65.05;;
44068;SDS011;29738;51.234;5.484;2022-11-20T07:56:17;80.72;;;28.90;;
44068;SDS011;29738;51.234;5.484;2022-11-20T07:58:43;72.72;;;23.83;;
44068;SDS011;29738;51.234;5.484;2022-11-20T08:01:09;104.50;;;38.25;;
44068;SDS011;29738;51.234;5.484;2022-11-20T08:03:34;83.65;;;27.83;;
44068;SDS011;29738;51.234;5.484;2022-11-20T08:06:02;111.30;;;43.17;;
44068;SDS011;29738;51.234;5.484;2022-11-20T08:08:28;89.43;;;27.75;;
44068;SDS011;29738;51.234;5.484;2022-11-20T08:10:56;131.18;;;45.58;;
44068;SDS011;29738;51.234;5.484;2022-11-20T08:13:42;85.85;;;26.85;;
44068;SDS011;29738;51.234;5.484;2022-11-20T08:16:26;96.55;;;30.40;;
44068;SDS011;29738;51.234;5.484;2022-11-20T08:18:53;81.70;;;25.42;;
44068;SDS011;29738;51.234;5.484;2022-11-20T08:21:18;102.78;;;36.95;;
44068;SDS011;29738;51.234;5.484;2022-11-20T08:23:44;96.45;;;31.70;;
44068;SDS011;29738;51.234;5.484;2022-11-20T08:26:10;91.10;;;26.13;;
44068;SDS011;29738;51.234;5.484;2022-11-20T08:28:36;63.08;;;22.25;;
44068;SDS011;29738;51.234;5.484;2022-11-20T08:31:02;74.97;;;23.80;;
44068;SDS011;29738;51.234;5.484;2022-11-20T08:33:29;81.30;;;26.38;;
44068;SDS011;29738;51.234;5.484;2022-11-20T08:36:01;65.03;;;22.17;;
44068;SDS011;29738;51.234;5.484;2022-11-20T08:38:27;62.67;;;22.35;;
44068;SDS011;29738;51.234;5.484;2022-11-20T08:41:00;77.03;;;24.83;;
44068;SDS011;29738;51.234;5.484;2022-11-20T08:46:12;65.75;;;21.50;;
44068;SDS011;29738;51.234;5.484;2022-11-20T08:48:37;70.03;;;22.73;;
44068;SDS011;29738;51.234;5.484;2022-11-20T08:51:03;63.55;;;22.42;;
44068;SDS011;29738;51.234;5.484;2022-11-20T08:53:29;63.13;;;22.77;;
44068;SDS011;29738;51.234;5.484;2022-11-20T08:55:56;73.85;;;25.05;;
44068;SDS011;29738;51.234;5.484;2022-11-20T08:58:22;76.13;;;26.40;;
44068;SDS011;29738;51.234;5.484;2022-11-20T09:00:48;73.60;;;24.92;;
44068;SDS011;29738;51.234;5.484;2022-11-20T09:03:14;67.68;;;20.45;;
44068;SDS011;29738;51.234;5.484;2022-11-20T09:05:40;64.43;;;23.05;;
44068;SDS011;29738;51.234;5.484;2022-11-20T09:08:05;78.78;;;26.60;;
44068;SDS011;29738;51.234;5.484;2022-11-20T09:10:31;89.78;;;34.92;;
44068;SDS011;29738;51.234;5.484;2022-11-20T09:12:57;59.00;;;21.45;;
44068;SDS011;29738;51.234;5.484;2022-11-20T09:15:24;45.00;;;17.00;;
44068;SDS011;29738;51.234;5.484;2022-11-20T09:17:50;54.63;;;18.17;;
44068;SDS011;29738;51.234;5.484;2022-11-20T09:20:20;146.68;;;51.20;;
44068;SDS011;29738;51.234;5.484;2022-11-20T09:22:46;67.80;;;27.00;;
44068;SDS011;29738;51.234;5.484;2022-11-20T09:25:12;70.57;;;25.55;;
44068;SDS011;29738;51.234;5.484;2022-11-20T09:27:38;66.40;;;22.70;;
44068;SDS011;29738;51.234;5.484;2022-11-20T09:30:06;45.65;;;17.10;;
44068;SDS011;29738;51.234;5.484;2022-11-20T09:32:32;58.35;;;20.17;;
44068;SDS011;29738;51.234;5.484;2022-11-20T09:34:58;53.47;;;16.52;;
44068;SDS011;29738;51.234;5.484;2022-11-20T09:37:24;58.30;;;19.35;;
44068;SDS011;29738;51.234;5.484;2022-11-20T09:39:50;52.40;;;17.95;;
44068;SDS011;29738;51.234;5.484;2022-11-20T09:52:25;60.88;;;25.63;;
44068;SDS011;29738;51.234;5.484;2022-11-20T09:55:09;62.35;;;22.13;;
44068;SDS011;29738;51.234;5.484;2022-11-20T09:57:37;65.47;;;23.02;;
44068;SDS011;29738;51.234;5.484;2022-11-20T10:00:08;66.28;;;24.98;;
44068;SDS011;29738;51.234;5.484;2022-11-20T10:05:33;54.17;;;17.05;;
44068;SDS011;29738;51.234;5.484;2022-11-20T10:10:41;62.80;;;18.83;;
44068;SDS011;29738;51.234;5.484;2022-11-20T10:13:34;57.50;;;18.42;;
44068;SDS011;29738;51.234;5.484;2022-11-20T10:16:26;63.58;;;19.90;;
44068;SDS011;29738;51.234;5.484;2022-11-20T10:22:06;63.35;;;21.80;;
44068;SDS011;29738;51.234;5.484;2022-11-20T10:30:44;50.25;;;14.82;;
44068;SDS011;29738;51.234;5.484;2022-11-20T10:33:20;55.53;;;16.13;;
44068;SDS011;29738;51.234;5.484;2022-11-20T10:41:46;77.05;;;25.55;;
44068;SDS011;29738;51.234;5.484;2022-11-20T10:44:17;69.07;;;21.27;;
44068;SDS011;29738;51.234;5.484;2022-11-20T10:47:13;69.35;;;20.38;;
44068;SDS011;29738;51.234;5.484;2022-11-20T10:49:41;78.38;;;26.60;;
44068;SDS011;29738;51.234;5.484;2022-11-20T10:55:06;62.53;;;19.02;;
44068;SDS011;29738;51.234;5.484;2022-11-20T10:57:46;70.78;;;22.90;;
44068;SDS011;29738;51.234;5.484;2022-11-20T11:00:25;65.43;;;21.25;;
44068;SDS011;29738;51.234;5.484;2022-11-20T11:02:52;69.43;;;22.50;;
44068;SDS011;29738;51.234;5.484;2022-11-20T11:07:51;94.28;;;33.63;;
44068;SDS011;29738;51.234;5.484;2022-11-20T11:13:00;67.05;;;23.63;;
44068;SDS011;29738;51.234;5.484;2022-11-20T11:15:27;89.70;;;32.65;;
44068;SDS011;29738;51.234;5.484;2022-11-20T11:17:53;69.43;;;24.33;;
44068;SDS011;29738;51.234;5.484;2022-11-20T11:20:21;66.45;;;22.38;;
44068;SDS011;29738;51.234;5.484;2022-11-20T11:22:50;62.92;;;17.63;;
44068;SDS011;29738;51.234;5.484;2022-11-20T11:25:22;67.72;;;21.15;;
44068;SDS011;29738;51.234;5.484;2022-11-20T11:27:52;57.42;;;18.92;;
44068;SDS011;29738;51.234;5.484;2022-11-20T11:30:20;56.58;;;18.58;;
44068;SDS011;29738;51.234;5.484;2022-11-20T11:32:46;61.42;;;20.85;;
44068;SDS011;29738;51.234;5.484;2022-11-20T11:35:23;54.75;;;18.30;;
44068;SDS011;29738;51.234;5.484;2022-11-20T11:37:51;54.90;;;18.85;;
44068;SDS011;29738;51.234;5.484;2022-11-20T11:40:19;68.45;;;20.27;;
44068;SDS011;29738;51.234;5.484;2022-11-20T11:42:50;67.15;;;21.40;;
44068;SDS011;29738;51.234;5.484;2022-11-20T11:45:22;65.50;;;19.27;;
44068;SDS011;29738;51.234;5.484;2022-11-20T11:47:49;64.53;;;21.63;;
44068;SDS011;29738;51.234;5.484;2022-11-20T11:55:28;72.47;;;21.02;;
44068;SDS011;29738;51.234;5.484;2022-11-20T12:04:35;68.88;;;20.42;;
44068;SDS011;29738;51.234;5.484;2022-11-20T12:09:55;77.00;;;21.90;;
44068;SDS011;29738;51.234;5.484;2022-11-20T12:12:32;68.30;;;20.13;;
44068;SDS011;29738;51.234;5.484;2022-11-20T12:15:04;61.50;;;18.20;;
44068;SDS011;29738;51.234;5.484;2022-11-20T12:17:35;68.17;;;20.47;;
44068;SDS011;29738;51.234;5.484;2022-11-20T12:20:01;71.35;;;20.77;;
44068;SDS011;29738;51.234;5.484;2022-11-20T12:30:52;56.78;;;17.13;;
44068;SDS011;29738;51.234;5.484;2022-11-20T12:39:25;71.85;;;22.10;;
44068;SDS011;29738;51.234;5.484;2022-11-20T12:55:57;69.97;;;22.73;;
44068;SDS011;29738;51.234;5.484;2022-11-20T13:07:08;62.00;;;20.33;;
44068;SDS011;29738;51.234;5.484;2022-11-20T13:09:39;75.55;;;21.65;;
44068;SDS011;29738;51.234;5.484;2022-11-20T13:12:14;83.35;;;21.63;;
44068;SDS011;29738;51.234;5.484;2022-11-20T13:14:58;72.38;;;22.20;;
44068;SDS011;29738;51.234;5.484;2022-11-20T13:17:33;75.72;;;23.27;;
44068;SDS011;29738;51.234;5.484;2022-11-20T13:20:06;67.68;;;20.95;;
44068;SDS011;29738;51.234;5.484;2022-11-20T13:22:48;81.72;;;22.17;;
44068;SDS011;29738;51.234;5.484;2022-11-20T13:25:34;76.82;;;21.80;;
44068;SDS011;29738;51.234;5.484;2022-11-20T13:28:27;75.57;;;22.30;;
44068;SDS011;29738;51.234;5.484;2022-11-20T13:30:54;80.97;;;21.45;;
44068;SDS011;29738;51.234;5.484;2022-11-20T13:33:31;75.22;;;21.27;;
44068;SDS011;29738;51.234;5.484;2022-11-20T13:46:40;76.68;;;21.88;;
44068;SDS011;29738;51.234;5.484;2022-11-20T13:49:09;75.38;;;23.35;;
44068;SDS011;29738;51.234;5.484;2022-11-20T13:51:46;81.15;;;23.60;;
44068;SDS011;29738;51.234;5.484;2022-11-20T13:54:43;85.40;;;23.83;;
44068;SDS011;29738;51.234;5.484;2022-11-20T14:00:30;65.82;;;18.98;;
44068;SDS011;29738;51.234;5.484;2022-11-20T14:03:01;88.28;;;27.55;;
44068;SDS011;29738;51.234;5.484;2022-11-20T14:05:45;72.82;;;23.27;;
44068;SDS011;29738;51.234;5.484;2022-11-20T14:08:23;96.72;;;26.30;;
44068;SDS011;29738;51.234;5.484;2022-11-20T14:11:11;104.20;;;29.80;;
44068;SDS011;29738;51.234;5.484;2022-11-20T14:16:22;101.47;;;27.63;;
44068;SDS011;29738;51.234;5.484;2022-11-20T14:18:48;129.95;;;35.15;;
44068;SDS011;29738;51.234;5.484;2022-11-20T14:21:25;118.65;;;34.67;;
44068;SDS011;29738;51.234;5.484;2022-11-20T14:24:02;67.35;;;20.83;;
44068;SDS011;29738;51.234;5.484;2022-11-20T14:26:31;104.22;;;27.48;;
44068;SDS011;29738;51.234;5.484;2022-11-20T14:28:57;172.60;;;50.28;;
44068;SDS011;29738;51.234;5.484;2022-11-20T14:31:25;147.52;;;40.35;;
44068;SDS011;29738;51.234;5.484;2022-11-20T14:33:53;103.38;;;29.85;;
44068;SDS011;29738;51.234;5.484;2022-11-20T14:36:21;165.93;;;46.60;;
44068;SDS011;29738;51.234;5.484;2022-11-20T14:38:49;65.35;;;22.75;;
44068;SDS011;29738;51.234;5.484;2022-11-20T14:41:19;47.30;;;15.85;;
44068;SDS011;29738;51.234;5.484;2022-11-20T14:43:51;41.50;;;16.08;;
44068;SDS011;29738;51.234;5.484;2022-11-20T14:46:22;35.80;;;12.85;;
44068;SDS011;29738;51.234;5.484;2022-11-20T14:48:49;35.58;;;16.88;;
44068;SDS011;29738;51.234;5.484;2022-11-20T14:54:10;60.72;;;29.40;;
44068;SDS011;29738;51.234;5.484;2022-11-20T14:59:49;24.65;;;10.95;;
44068;SDS011;29738;51.234;5.484;2022-11-20T15:02:15;20.20;;;7.85;;
44068;SDS011;29738;51.234;5.484;2022-11-20T15:04:48;30.85;;;14.52;;
44068;SDS011;29738;51.234;5.484;2022-11-20T15:07:27;18.60;;;7.55;;
44068;SDS011;29738;51.234;5.484;2022-11-20T15:10:01;12.57;;;6.32;;
44068;SDS011;29738;51.234;5.484;2022-11-20T15:12:40;16.88;;;6.38;;
44068;SDS011;29738;51.234;5.484;2022-11-20T15:15:15;25.88;;;8.52;;
44068;SDS011;29738;51.234;5.484;2022-11-20T15:17:45;18.25;;;7.40;;
44068;SDS011;29738;51.234;5.484;2022-11-20T15:20:13;20.52;;;11.40;;
44068;SDS011;29738;51.234;5.484;2022-11-20T15:22:40;19.65;;;6.75;;
44068;SDS011;29738;51.234;5.484;2022-11-20T15:25:13;18.33;;;8.75;;
44068;SDS011;29738;51.234;5.484;2022-11-20T15:27:40;16.92;;;8.00;;
44068;SDS011;29738;51.234;5.484;2022-11-20T15:30:14;36.42;;;14.18;;
44068;SDS011;29738;51.234;5.484;2022-11-20T15:32:42;28.25;;;10.45;;
44068;SDS011;29738;51.234;5.484;2022-11-20T15:35:08;14.05;;;7.35;;
44068;SDS011;29738;51.234;5.484;2022-11-20T15:37:35;16.60;;;7.72;;
44068;SDS011;29738;51.234;5.484;2022-11-20T15:40:01;21.55;;;9.63;;
44068;SDS011;29738;51.234;5.484;2022-11-20T15:42:27;18.80;;;9.00;;
44068;SDS011;29738;51.234;5.484;2022-11-20T15:44:53;18.13;;;9.20;;
44068;SDS011;29738;51.234;5.484;2022-11-20T15:47:19;22.13;;;10.40;;
44068;SDS011;29738;51.234;5.484;2022-11-20T15:49:52;20.38;;;9.20;;
44068;SDS011;29738;51.234;5.484;2022-11-20T15:52:18;21.70;;;8.50;;
44068;SDS011;29738;51.234;5.484;2022-11-20T15:54:44;18.58;;;7.65;;
44068;SDS011;29738;51.234;5.484;2022-11-20T15:57:10;19.58;;;8.20;;
44068;SDS011;29738;51.234;5.484;2022-11-20T15:59:35;23.70;;;11.05;;
44068;SDS011;29738;51.234;5.484;2022-11-20T16:02:14;28.08;;;13.63;;
44068;SDS011;29738;51.234;5.484;2022-11-20T16:04:40;39.00;;;13.43;;
44068;SDS011;29738;51.234;5.484;2022-11-20T16:07:07;33.67;;;13.68;;
44068;SDS011;29738;51.234;5.484;2022-11-20T16:09:32;22.40;;;8.80;;
44068;SDS011;29738;51.234;5.484;2022-11-20T16:11:58;15.55;;;8.32;;
44068;SDS011;29738;51.234;5.484;2022-11-20T16:14:25;17.05;;;7.40;;
44068;SDS011;29738;51.234;5.484;2022-11-20T16:17:10;18.25;;;7.50;;
44068;SDS011;29738;51.234;5.484;2022-11-20T16:19:36;16.83;;;8.55;;
44068;SDS011;29738;51.234;5.484;2022-11-20T16:22:01;16.13;;;7.70;;
44068;SDS011;29738;51.234;5.484;2022-11-20T16:24:27;13.75;;;6.97;;
44068;SDS011;29738;51.234;5.484;2022-11-20T16:26:53;18.52;;;8.90;;
44068;SDS011;29738;51.234;5.484;2022-11-20T16:29:19;36.80;;;16.27;;
44068;SDS011;29738;51.234;5.484;2022-11-20T16:31:45;97.07;;;43.60;;